createdAt,value
2019-05-28T00:01:52.570Z,12.90
2019-05-28T00:04:21.640Z,12.90
2019-05-28T00:06:50.751Z,12.90
2019-05-28T00:09:19.533Z,12.90
2019-05-28T00:11:48.288Z,12.90
2019-05-28T00:14:17.146Z,12.90
2019-05-28T00:16:45.899Z,12.90
2019-05-28T00:19:14.648Z,12.90
2019-05-28T00:21:43.446Z,12.90
2019-05-28T00:24:13.304Z,12.90
2019-05-28T00:26:42.050Z,12.90
2019-05-28T00:29:10.838Z,12.80
2019-05-28T00:31:39.713Z,12.80
2019-05-28T00:34:08.483Z,12.80
2019-05-28T00:36:37.563Z,12.80
2019-05-28T00:39:08.098Z,12.80
2019-05-28T00:41:37.259Z,12.80
2019-05-28T00:44:06.026Z,12.80
2019-05-28T00:46:34.773Z,12.80
2019-05-28T00:49:03.527Z,12.80
2019-05-28T00:51:33.394Z,12.80
2019-05-28T00:54:02.154Z,12.80
2019-05-28T00:56:31.197Z,12.80
2019-05-28T00:59:00.957Z,12.80
2019-05-28T01:01:30.079Z,12.80
2019-05-28T01:03:58.819Z,12.80
2019-05-28T01:06:28.206Z,12.70
2019-05-28T01:08:56.959Z,12.70
2019-05-28T01:11:26.695Z,12.70
2019-05-28T01:13:55.561Z,12.70
2019-05-28T01:16:24.311Z,12.70
2019-05-28T01:18:53.058Z,12.70
2019-05-28T01:21:21.959Z,12.70
2019-05-28T01:23:51.086Z,12.70
2019-05-28T01:26:19.832Z,12.70
2019-05-28T01:28:48.946Z,12.70
2019-05-28T01:31:17.693Z,12.70
2019-05-28T01:33:46.447Z,12.70
2019-05-28T01:36:15.325Z,12.70
2019-05-28T01:38:44.403Z,12.70
2019-05-28T01:41:13.150Z,12.70
2019-05-28T01:43:41.942Z,12.70
2019-05-28T01:46:10.719Z,12.70
2019-05-28T01:48:39.433Z,12.70
2019-05-28T01:51:08.546Z,12.60
2019-05-28T01:53:37.721Z,12.60
2019-05-28T01:56:06.824Z,12.60
2019-05-28T01:58:35.726Z,12.60
2019-05-28T02:01:12.851Z,12.60
2019-05-28T02:03:34.946Z,12.50
2019-05-28T02:06:03.745Z,12.50
2019-05-28T02:08:32.499Z,12.50
2019-05-28T02:11:01.259Z,12.50
2019-05-28T02:13:30.042Z,12.50
2019-05-28T02:15:58.791Z,12.50
2019-05-28T02:18:28.570Z,12.50
2019-05-28T02:20:59.399Z,12.50
2019-05-28T02:23:28.150Z,12.50
2019-05-28T02:25:56.906Z,12.50
2019-05-28T02:28:25.802Z,12.50
2019-05-28T02:30:54.551Z,12.50
2019-05-28T02:33:23.695Z,12.50
2019-05-28T02:35:52.490Z,12.40
2019-05-28T02:38:21.241Z,12.40
2019-05-28T02:40:49.990Z,12.40
2019-05-28T02:43:18.782Z,12.40
2019-05-28T02:45:47.653Z,12.40
2019-05-28T02:48:16.670Z,12.30
2019-05-28T02:50:48.419Z,12.30
2019-05-28T02:53:17.251Z,12.30
2019-05-28T02:55:47.303Z,12.30
2019-05-28T02:58:17.594Z,12.40
2019-05-28T03:00:46.649Z,12.40
2019-05-28T03:03:16.866Z,12.40
2019-05-28T03:05:48.151Z,12.40
2019-05-28T03:08:19.143Z,12.30
2019-05-28T03:11:04.430Z,12.30
2019-05-28T03:13:18.383Z,12.30
2019-05-28T03:15:49.541Z,12.30
2019-05-28T03:18:20.275Z,12.30
2019-05-28T03:20:49.370Z,12.30
2019-05-28T03:23:18.820Z,12.30
2019-05-28T03:25:47.622Z,12.30
2019-05-28T03:28:16.514Z,12.30
2019-05-28T03:30:45.547Z,12.30
2019-05-28T03:33:14.346Z,12.20
2019-05-28T03:35:45.043Z,12.30
2019-05-28T03:38:14.890Z,12.30
2019-05-28T03:40:45.694Z,12.30
2019-05-28T03:43:15.087Z,12.30
2019-05-28T03:45:43.918Z,12.30
2019-05-28T03:48:12.875Z,12.30
2019-05-28T03:50:41.695Z,12.30
2019-05-28T03:53:10.743Z,12.30
2019-05-28T03:55:39.485Z,12.30
2019-05-28T03:58:08.461Z,12.30
2019-05-28T04:00:37.217Z,12.30
2019-05-28T04:03:06.177Z,12.30
2019-05-28T04:05:35.257Z,12.30
2019-05-28T04:08:04.144Z,12.20
2019-05-28T04:10:32.939Z,12.30
2019-05-28T04:13:01.726Z,12.30
2019-05-28T04:15:30.480Z,12.30
2019-05-28T04:17:59.545Z,12.30
2019-05-28T04:20:28.477Z,12.40
2019-05-28T04:22:58.525Z,12.40
2019-05-28T04:25:27.573Z,12.40
2019-05-28T04:27:56.371Z,12.50
2019-05-28T04:30:25.126Z,12.50
2019-05-28T04:32:54.167Z,12.50
2019-05-28T04:35:23.258Z,12.50
2019-05-28T04:37:52.413Z,12.50
2019-05-28T04:40:21.380Z,12.50
2019-05-28T04:42:50.500Z,12.60
2019-05-28T04:45:19.251Z,12.60
2019-05-28T04:47:48.099Z,12.60
2019-05-28T04:50:17.697Z,12.60
2019-05-28T04:52:46.446Z,12.60
2019-05-28T04:55:15.226Z,12.70
2019-05-28T04:57:43.991Z,12.70
2019-05-28T05:00:13.044Z,12.70
2019-05-28T05:02:58.830Z,12.70
2019-05-28T05:05:14.822Z,12.70
2019-05-28T05:07:43.575Z,12.80
2019-05-28T05:10:12.653Z,12.80
2019-05-28T05:12:41.547Z,12.80
2019-05-28T05:15:10.558Z,12.80
2019-05-28T05:17:39.300Z,12.90
2019-05-28T05:20:08.500Z,12.90
2019-05-28T05:22:37.247Z,12.90
2019-05-28T05:25:06.902Z,12.90
2019-05-28T05:27:36.186Z,13.00
2019-05-28T05:30:07.016Z,13.00
2019-05-28T05:32:35.834Z,13.00
2019-05-28T05:35:05.736Z,13.10
2019-05-28T05:37:34.486Z,13.10
2019-05-28T05:40:04.424Z,13.20
2019-05-28T05:42:33.541Z,13.20
2019-05-28T05:45:02.299Z,13.30
2019-05-28T05:47:31.373Z,13.30
2019-05-28T05:50:00.179Z,13.30
2019-05-28T05:52:29.235Z,13.40
2019-05-28T05:54:58.276Z,13.40
2019-05-28T05:57:27.394Z,13.40
2019-05-28T05:59:56.146Z,13.40
2019-05-28T06:02:24.896Z,13.40
2019-05-28T06:04:53.778Z,13.50
2019-05-28T06:07:22.557Z,13.50
2019-05-28T06:09:52.142Z,13.50
2019-05-28T06:12:20.930Z,13.50
2019-05-28T06:14:49.708Z,13.50
2019-05-28T06:17:18.829Z,13.50
2019-05-28T06:19:47.589Z,13.40
2019-05-28T06:22:16.333Z,13.40
2019-05-28T06:24:45.094Z,13.40
2019-05-28T06:27:13.955Z,13.40
2019-05-28T06:29:43.074Z,13.30
2019-05-28T06:32:11.814Z,13.30
2019-05-28T06:34:41.160Z,13.20
2019-05-28T06:37:09.878Z,13.20
2019-05-28T06:39:39.022Z,13.10
2019-05-28T06:42:07.818Z,13.00
2019-05-28T06:44:36.574Z,12.90
2019-05-28T06:47:06.410Z,12.80
2019-05-28T06:49:36.674Z,12.80
2019-05-28T06:52:05.423Z,12.70
2019-05-28T06:54:34.242Z,12.70
2019-05-28T06:57:03.470Z,12.70
2019-05-28T06:59:32.222Z,12.70
2019-05-28T07:02:00.974Z,12.70
2019-05-28T07:04:33.038Z,12.70
2019-05-28T07:07:00.234Z,12.70
2019-05-28T07:09:28.997Z,12.70
2019-05-28T07:11:57.786Z,12.70
2019-05-28T07:14:26.607Z,12.80
2019-05-28T07:16:55.678Z,12.80
2019-05-28T07:19:25.253Z,12.90
2019-05-28T07:21:54.226Z,12.90
2019-05-28T07:24:22.971Z,13.00
2019-05-28T07:26:52.699Z,13.00
2019-05-28T07:29:21.486Z,13.00
2019-05-28T07:31:50.531Z,13.00
2019-05-28T07:34:30.396Z,13.00
2019-05-28T07:36:50.300Z,13.00
2019-05-28T07:39:19.459Z,13.00
2019-05-28T07:41:48.623Z,12.90
2019-05-28T07:44:17.743Z,12.90
2019-05-28T07:46:46.795Z,12.90
2019-05-28T07:49:15.679Z,12.90
2019-05-28T07:51:44.430Z,12.90
2019-05-28T07:54:13.176Z,12.90
2019-05-28T07:56:41.978Z,12.80
2019-05-28T07:59:10.731Z,12.80
2019-05-28T08:01:39.526Z,12.70
2019-05-28T08:04:08.359Z,12.70
2019-05-28T08:06:53.833Z,12.70
2019-05-28T08:09:08.432Z,12.60
2019-05-28T08:11:37.227Z,12.60
2019-05-28T08:14:06.073Z,12.60
2019-05-28T08:16:34.838Z,12.60
2019-05-28T08:19:04.001Z,12.60
2019-05-28T08:21:32.751Z,12.60
2019-05-28T08:24:01.503Z,12.60
2019-05-28T08:26:30.365Z,12.60
2019-05-28T08:28:59.840Z,12.60
2019-05-28T08:31:28.706Z,12.70
2019-05-28T08:33:57.574Z,12.70
2019-05-28T08:36:26.401Z,12.80
2019-05-28T08:38:55.229Z,12.80
2019-05-28T08:41:24.385Z,12.80
2019-05-28T08:43:53.207Z,12.90
2019-05-28T08:46:21.967Z,12.90
2019-05-28T08:48:50.769Z,13.00
2019-05-28T08:51:19.872Z,13.00
2019-05-28T08:53:48.622Z,13.00
2019-05-28T08:56:17.422Z,13.10
2019-05-28T08:58:46.203Z,13.10
2019-05-28T09:01:15.445Z,13.10
2019-05-28T09:03:44.298Z,13.10
2019-05-28T09:06:13.042Z,13.10
2019-05-28T09:08:41.795Z,13.10
2019-05-28T09:11:11.012Z,13.20
2019-05-28T09:13:39.963Z,13.20
2019-05-28T09:16:08.720Z,13.10
2019-05-28T09:18:37.870Z,13.10
2019-05-28T09:21:06.691Z,13.10
2019-05-28T09:23:35.513Z,13.10
2019-05-28T09:26:04.536Z,13.10
2019-05-28T09:28:33.355Z,13.20
2019-05-28T09:31:02.181Z,13.20
2019-05-28T09:33:31.041Z,13.10
2019-05-28T09:36:07.844Z,13.10
2019-05-28T09:38:30.327Z,13.10
2019-05-28T09:40:59.243Z,13.10
2019-05-28T09:43:28.300Z,13.20
2019-05-28T09:45:57.116Z,13.30
2019-05-28T09:48:25.983Z,13.30
2019-05-28T09:50:54.744Z,13.40
2019-05-28T09:53:23.806Z,13.40
2019-05-28T09:55:52.604Z,13.50
2019-05-28T09:58:21.687Z,13.60
2019-05-28T10:00:58.185Z,13.70
2019-05-28T10:03:21.621Z,13.70
2019-05-28T10:06:01.904Z,13.70
2019-05-28T10:08:21.588Z,13.70
2019-05-28T10:10:50.391Z,13.80
2019-05-28T10:13:36.878Z,13.90
2019-05-28T10:15:49.638Z,14.10
2019-05-28T10:18:18.415Z,14.20
2019-05-28T10:20:47.245Z,14.20
2019-05-28T10:23:16.073Z,14.00
2019-05-28T10:25:44.934Z,13.90
2019-05-28T10:28:13.680Z,13.90
2019-05-28T10:30:42.438Z,13.80
2019-05-28T10:33:11.234Z,13.80
2019-05-28T10:35:40.057Z,13.70
2019-05-28T10:38:14.870Z,13.70
2019-05-28T10:40:39.589Z,13.70
2019-05-28T10:43:08.334Z,13.80
2019-05-28T10:45:37.510Z,13.70
2019-05-28T10:48:07.832Z,13.70
2019-05-28T10:50:36.656Z,13.60
2019-05-28T10:53:05.487Z,13.70
2019-05-28T10:55:34.269Z,13.60
2019-05-28T10:58:03.042Z,13.50
2019-05-28T11:00:32.076Z,13.60
2019-05-28T11:03:00.868Z,13.70
2019-05-28T11:05:29.686Z,13.80
2019-05-28T11:07:58.719Z,13.90
2019-05-28T11:10:27.674Z,14.10
2019-05-28T11:12:56.714Z,14.20
2019-05-28T11:15:25.935Z,14.20
2019-05-28T11:17:54.737Z,14.20
2019-05-28T11:20:23.907Z,14.10
2019-05-28T11:22:52.644Z,14.00
2019-05-28T11:25:22.950Z,14.00
2019-05-28T11:27:51.745Z,13.90
2019-05-28T11:30:20.764Z,14.00
2019-05-28T11:32:49.729Z,14.30
2019-05-28T11:35:19.097Z,14.60
2019-05-28T11:37:49.042Z,15.00
2019-05-28T11:40:20.814Z,15.30
2019-05-28T11:42:49.835Z,15.50
2019-05-28T11:45:19.095Z,15.60
2019-05-28T11:47:50.736Z,15.70
2019-05-28T11:50:19.952Z,15.90
2019-05-28T11:52:48.690Z,16.30
2019-05-28T11:55:17.975Z,16.30
2019-05-28T11:57:46.726Z,16.30
2019-05-28T12:00:16.267Z,16.40
2019-05-28T12:02:45.385Z,16.40
2019-05-28T12:05:14.770Z,16.30
2019-05-28T12:07:43.617Z,16.10
2019-05-28T12:10:13.619Z,15.80
2019-05-28T12:12:42.400Z,15.50
2019-05-28T12:15:12.910Z,15.30
2019-05-28T12:17:45.540Z,15.30
2019-05-28T12:20:15.150Z,15.20
2019-05-28T12:22:44.062Z,15.10
2019-05-28T12:25:13.512Z,15.10
2019-05-28T12:27:42.364Z,15.20
2019-05-28T12:30:18.181Z,15.50
2019-05-28T12:32:45.458Z,15.70
2019-05-28T12:35:27.137Z,15.70
2019-05-28T12:37:49.295Z,15.60
2019-05-28T12:40:15.844Z,15.40
2019-05-28T12:42:44.595Z,15.50
2019-05-28T12:45:15.503Z,15.40
2019-05-28T12:47:44.611Z,15.50
2019-05-28T12:50:19.674Z,15.80
2019-05-28T12:52:47.240Z,16.20
2019-05-28T12:55:18.435Z,16.40
2019-05-28T12:57:47.499Z,16.30
2019-05-28T13:00:16.548Z,16.20
2019-05-28T13:02:45.328Z,16.20
2019-05-28T13:05:20.242Z,16.40
2019-05-28T13:08:06.478Z,16.50
2019-05-28T13:10:20.646Z,16.50
2019-05-28T13:12:51.100Z,16.60
2019-05-28T13:15:21.394Z,16.90
2019-05-28T13:17:51.302Z,17.00
2019-05-28T13:20:21.556Z,16.90
2019-05-28T13:22:51.880Z,16.60
2019-05-28T13:25:20.871Z,16.40
2019-05-28T13:27:51.569Z,16.30
2019-05-28T13:30:20.610Z,16.40
2019-05-28T13:32:51.153Z,16.40
2019-05-28T13:35:21.695Z,16.50
2019-05-28T13:37:52.034Z,16.60
2019-05-28T13:40:21.796Z,16.50
2019-05-28T13:42:50.835Z,16.40
2019-05-28T13:45:20.370Z,16.20
2019-05-28T13:47:49.266Z,16.10
2019-05-28T13:50:18.442Z,16.00
2019-05-28T13:52:47.174Z,16.00
2019-05-28T13:55:16.301Z,16.00
2019-05-28T13:57:45.029Z,16.00
2019-05-28T14:00:15.902Z,16.20
2019-05-28T14:02:46.280Z,16.60
2019-05-28T14:05:17.205Z,16.90
2019-05-28T14:07:45.906Z,17.00
2019-05-28T14:10:15.623Z,17.00
2019-05-28T14:12:44.835Z,17.30
2019-05-28T14:15:14.379Z,17.70
2019-05-28T14:17:43.165Z,17.90
2019-05-28T14:20:12.882Z,17.80
2019-05-28T14:22:41.706Z,17.70
2019-05-28T14:25:12.562Z,17.80
2019-05-28T14:27:41.308Z,18.10
2019-05-28T14:30:12.564Z,18.50
2019-05-28T14:32:42.679Z,18.60
2019-05-28T14:35:11.536Z,18.50
2019-05-28T14:37:41.635Z,18.50
2019-05-28T14:40:11.018Z,18.60
2019-05-28T14:42:39.761Z,18.60
2019-05-28T14:45:12.019Z,18.70
2019-05-28T14:47:40.902Z,18.70
2019-05-28T14:50:10.184Z,18.70
2019-05-28T14:52:38.933Z,18.60
2019-05-28T14:55:08.622Z,18.60
2019-05-28T14:57:37.367Z,18.50
2019-05-28T15:00:10.858Z,18.50
2019-05-28T15:02:39.682Z,18.60
2019-05-28T15:05:11.364Z,18.70
2019-05-28T15:07:40.118Z,18.70
2019-05-28T15:10:13.839Z,18.70
2019-05-28T15:12:42.716Z,18.60
2019-05-28T15:15:13.721Z,18.60
2019-05-28T15:17:42.525Z,18.40
2019-05-28T15:20:11.875Z,18.30
2019-05-28T15:22:40.623Z,18.30
2019-05-28T15:25:09.616Z,18.20
2019-05-28T15:27:38.349Z,18.20
2019-05-28T15:30:08.363Z,18.20
2019-05-28T15:32:37.438Z,18.10
2019-05-28T15:35:07.884Z,18.00
2019-05-28T15:37:36.633Z,17.90
2019-05-28T15:40:07.196Z,17.80
2019-05-28T15:42:36.258Z,17.90
2019-05-28T15:45:10.086Z,17.80
2019-05-28T15:47:39.466Z,17.80
2019-05-28T15:50:10.114Z,17.80
2019-05-28T15:52:38.943Z,17.90
2019-05-28T15:55:09.099Z,17.90
2019-05-28T15:57:37.943Z,17.70
2019-05-28T16:00:11.963Z,17.60
2019-05-28T16:02:41.055Z,17.60
2019-05-28T16:05:11.434Z,17.70
2019-05-28T16:07:40.520Z,17.90
2019-05-28T16:10:10.578Z,17.90
2019-05-28T16:12:39.641Z,18.00
2019-05-28T16:15:09.159Z,18.00
2019-05-28T16:17:38.417Z,18.00
2019-05-28T16:20:08.035Z,17.80
2019-05-28T16:22:36.774Z,17.90
2019-05-28T16:25:09.115Z,18.00
2019-05-28T16:27:38.143Z,18.00
2019-05-28T16:30:08.835Z,18.00
2019-05-28T16:32:37.610Z,17.90
2019-05-28T16:35:08.293Z,17.80
2019-05-28T16:37:37.050Z,17.70
2019-05-28T16:40:15.601Z,17.60
2019-05-28T16:42:39.638Z,17.40
2019-05-28T16:45:09.839Z,17.30
2019-05-28T16:47:38.632Z,17.10
2019-05-28T16:50:12.609Z,17.00
2019-05-28T16:52:39.736Z,16.90
2019-05-28T16:55:11.130Z,16.80
2019-05-28T16:57:39.880Z,16.70
2019-05-28T17:00:09.615Z,16.70
2019-05-28T17:02:38.474Z,16.60
2019-05-28T17:05:09.198Z,16.60
2019-05-28T17:07:37.939Z,16.50
2019-05-28T17:10:07.961Z,16.50
2019-05-28T17:12:36.848Z,16.50
2019-05-28T17:15:09.746Z,16.50
2019-05-28T17:17:38.818Z,16.60
2019-05-28T17:20:08.554Z,16.70
2019-05-28T17:22:37.301Z,16.70
2019-05-28T17:25:11.128Z,16.60
2019-05-28T17:27:37.977Z,16.50
2019-05-28T17:30:17.903Z,16.50
2019-05-28T17:32:37.824Z,16.40
2019-05-28T17:35:08.195Z,16.40
2019-05-28T17:37:37.947Z,16.40
2019-05-28T17:40:07.970Z,16.30
2019-05-28T17:42:36.677Z,16.20
2019-05-28T17:45:09.067Z,16.10
2019-05-28T17:47:43.117Z,16.10
2019-05-28T17:50:08.509Z,16.00
2019-05-28T17:52:37.775Z,15.90
2019-05-28T17:55:07.047Z,15.80
2019-05-28T17:57:35.890Z,15.80
2019-05-28T18:00:07.009Z,15.80
2019-05-28T18:02:35.803Z,15.90
2019-05-28T18:05:06.450Z,16.00
2019-05-28T18:07:35.294Z,16.10
2019-05-28T18:10:10.045Z,16.20
2019-05-28T18:12:38.801Z,16.20
2019-05-28T18:15:08.646Z,16.30
2019-05-28T18:17:37.530Z,16.30
2019-05-28T18:20:07.555Z,16.30
2019-05-28T18:22:36.570Z,16.20
2019-05-28T18:25:07.223Z,16.20
2019-05-28T18:27:36.323Z,16.20
2019-05-28T18:30:08.932Z,16.10
2019-05-28T18:32:37.900Z,16.00
2019-05-28T18:35:10.227Z,15.90
2019-05-28T18:37:38.956Z,15.80
2019-05-28T18:40:09.858Z,15.70
2019-05-28T18:42:38.623Z,15.50
2019-05-28T18:45:09.440Z,15.40
2019-05-28T18:47:39.196Z,15.30
2019-05-28T18:50:10.257Z,15.10
2019-05-28T18:52:39.328Z,14.90
2019-05-28T18:55:08.624Z,14.80
2019-05-28T18:57:37.375Z,14.60
2019-05-28T19:00:08.588Z,14.40
2019-05-28T19:02:37.519Z,14.30
2019-05-28T19:05:07.359Z,14.20
2019-05-28T19:07:36.103Z,14.10
2019-05-28T19:10:06.661Z,14.00
2019-05-28T19:12:35.677Z,13.90
2019-05-28T19:15:07.598Z,13.90
2019-05-28T19:17:36.489Z,13.80
2019-05-28T19:20:09.551Z,13.80
2019-05-28T19:22:38.297Z,13.80
2019-05-28T19:25:11.604Z,13.70
2019-05-28T19:27:41.109Z,13.60
2019-05-28T19:30:11.989Z,13.50
2019-05-28T19:32:40.743Z,13.40
2019-05-28T19:35:09.905Z,13.40
2019-05-28T19:37:38.735Z,13.40
2019-05-28T19:40:08.229Z,13.30
2019-05-28T19:42:36.970Z,13.30
2019-05-28T19:45:12.503Z,13.20
2019-05-28T19:47:41.298Z,13.20
2019-05-28T19:50:10.612Z,13.20
2019-05-28T19:52:39.360Z,13.20
2019-05-28T19:55:08.246Z,13.10
2019-05-28T19:57:36.991Z,13.10
2019-05-28T20:00:09.082Z,13.00
2019-05-28T20:02:39.539Z,13.00
2019-05-28T20:05:09.439Z,12.90
2019-05-28T20:07:38.182Z,12.80
2019-05-28T20:10:07.456Z,12.80
2019-05-28T20:12:36.205Z,12.70
2019-05-28T20:15:09.125Z,12.70
2019-05-28T20:17:38.687Z,12.70
2019-05-28T20:20:10.751Z,12.60
2019-05-28T20:22:39.850Z,12.60
2019-05-28T20:25:09.037Z,12.60
2019-05-28T20:27:37.784Z,12.50
2019-05-28T20:30:11.464Z,12.50
2019-05-28T20:32:40.759Z,12.50
2019-05-28T20:35:10.212Z,12.50
2019-05-28T20:37:39.056Z,12.50
2019-05-28T20:40:08.543Z,12.60
2019-05-28T20:42:38.063Z,12.60
2019-05-28T20:45:08.776Z,12.70
2019-05-28T20:47:37.562Z,12.70
2019-05-28T20:50:09.401Z,12.60
2019-05-28T20:52:38.558Z,12.50
2019-05-28T20:55:07.950Z,12.50
2019-05-28T20:57:36.775Z,12.50
2019-05-28T21:00:07.413Z,12.50
2019-05-28T21:02:36.205Z,12.50
2019-05-28T21:05:07.695Z,12.50
2019-05-28T21:07:36.442Z,12.50
2019-05-28T21:10:06.998Z,12.50
2019-05-28T21:12:43.714Z,12.50
2019-05-28T21:15:09.775Z,12.40
2019-05-28T21:17:38.577Z,12.40
2019-05-28T21:20:08.581Z,12.40
2019-05-28T21:22:37.329Z,12.40
2019-05-28T21:25:09.729Z,12.30
2019-05-28T21:27:38.785Z,12.20
2019-05-28T21:30:08.039Z,12.20
2019-05-28T21:32:37.486Z,12.20
2019-05-28T21:35:06.526Z,12.10
2019-05-28T21:37:35.270Z,12.10
2019-05-28T21:40:05.159Z,12.10
2019-05-28T21:42:33.975Z,12.00
2019-05-28T21:45:02.829Z,12.00
2019-05-28T21:47:31.602Z,12.00
2019-05-28T21:50:01.056Z,12.00
2019-05-28T21:52:30.664Z,11.90
2019-05-28T21:54:59.451Z,11.90
2019-05-28T21:57:28.194Z,11.90
2019-05-28T21:59:57.913Z,11.90
2019-05-28T22:02:26.750Z,11.80
2019-05-28T22:04:55.514Z,11.80
2019-05-28T22:07:24.242Z,11.80
2019-05-28T22:09:53.781Z,11.90
2019-05-28T22:12:22.982Z,11.90
2019-05-28T22:14:51.726Z,11.90
2019-05-28T22:17:20.514Z,11.90
2019-05-28T22:19:49.258Z,11.90
2019-05-28T22:22:18.002Z,11.90
2019-05-28T22:24:46.798Z,11.80
2019-05-28T22:27:15.538Z,11.80
2019-05-28T22:29:45.822Z,11.80
2019-05-28T22:32:14.610Z,11.80
2019-05-28T22:34:43.358Z,11.70
2019-05-28T22:37:12.419Z,11.60
2019-05-28T22:39:41.206Z,11.60
2019-05-28T22:42:09.953Z,11.50
2019-05-28T22:44:38.985Z,11.50
2019-05-28T22:47:07.767Z,11.40
2019-05-28T22:49:36.507Z,11.40
2019-05-28T22:52:06.050Z,11.30
2019-05-28T22:54:34.931Z,11.20
2019-05-28T22:57:05.189Z,11.10
2019-05-28T22:59:36.526Z,11.10
2019-05-28T23:02:05.422Z,11.00
2019-05-28T23:04:34.451Z,11.00
2019-05-28T23:07:03.488Z,10.90
2019-05-28T23:09:32.366Z,10.80
2019-05-28T23:12:01.624Z,10.80
2019-05-28T23:14:30.351Z,10.80
2019-05-28T23:17:00.228Z,10.70
2019-05-28T23:19:29.055Z,10.70
2019-05-28T23:21:57.915Z,10.60
2019-05-28T23:24:26.702Z,10.60
2019-05-28T23:26:55.472Z,10.50
2019-05-28T23:29:24.206Z,10.50
2019-05-28T23:31:53.347Z,10.40
2019-05-28T23:34:22.183Z,10.40
2019-05-28T23:36:50.932Z,10.40
2019-05-28T23:39:19.758Z,10.40
2019-05-28T23:41:48.506Z,10.40
2019-05-28T23:44:17.246Z,10.30
2019-05-28T23:46:46.084Z,10.30
2019-05-28T23:49:14.841Z,10.30
2019-05-28T23:51:44.117Z,10.30
2019-05-28T23:54:13.890Z,10.30
2019-05-28T23:56:42.674Z,10.30
2019-05-28T23:59:11.824Z,10.20
